Time;durP1;ratioP1;P1;durP2;ratioP2;P2;SDS_P1;SDS_P2;PMS_P1;PMS_P2;Temp;Humidity;BMP_temperature;BMP_pressure;BME280_temperature;BME280_humidity;BME280_pressure;Samples;Min_cycle;Max_cycle;Signal;HPM_P1;HPM_P2
2023/06/26 00:01:43;;;;;;;7.40;6.40;;;18.80;79.30;;;18.98;63.37;97911.03;4983778;28;20456;-73
2023/06/26 00:04:14;;;;;;;7.80;6.13;;;18.90;78.50;;;18.96;63.61;97914.03;4992287;28;20455;-73
2023/06/26 00:06:43;;;;;;;7.43;6.57;;;18.90;78.40;;;18.87;63.24;97896.50;4994294;28;20460;-75
2023/06/26 00:09:12;;;;;;;6.60;6.00;;;19.00;78.20;;;18.95;63.17;97912.41;4989082;28;20444;-73
2023/06/26 00:11:39;;;;;;;7.60;6.27;;;19.00;78.00;;;18.93;63.18;97905.56;4989892;28;20452;-75
2023/06/26 00:14:06;;;;;;;6.83;6.13;;;18.90;77.90;;;18.88;63.67;97906.41;4998492;28;21111;-75
2023/06/26 00:16:34;;;;;;;7.50;6.17;;;18.90;78.30;;;18.85;63.84;97904.19;4986019;28;20567;-73
2023/06/26 00:19:01;;;;;;;8.67;6.47;;;18.80;78.40;;;18.70;64.10;97907.72;4989844;28;20468;-74
2023/06/26 00:21:28;;;;;;;7.00;6.33;;;18.80;78.40;;;18.60;64.21;97896.75;4984470;28;20475;-75
2023/06/26 00:23:57;;;;;;;6.97;6.27;;;18.70;78.50;;;18.66;64.32;97912.13;4977640;28;20579;-72
2023/06/26 00:26:25;;;;;;;6.40;5.80;;;18.70;78.70;;;18.60;64.29;97911.28;4996806;28;20460;-75
2023/06/26 00:28:52;;;;;;;6.47;5.87;;;18.60;78.70;;;18.60;64.26;97904.97;4983537;28;20491;-75
2023/06/26 00:31:19;;;;;;;7.10;6.07;;;18.60;78.80;;;18.52;64.38;97903.59;5000253;28;20432;-73
2023/06/26 00:33:46;;;;;;;7.33;6.53;;;18.60;78.70;;;18.55;64.14;97908.50;4995718;28;20983;-76
2023/06/26 00:36:14;;;;;;;7.73;6.60;;;18.60;78.50;;;18.54;64.02;97907.72;4991395;28;20968;-75
2023/06/26 00:38:41;;;;;;;6.27;5.67;;;18.50;78.40;;;18.51;64.23;97908.25;4990476;28;20540;-75
2023/06/26 00:41:12;;;;;;;6.97;5.90;;;18.60;78.60;;;18.47;64.03;97907.13;4987685;28;20821;-76
2023/06/26 00:43:40;;;;;;;6.63;5.93;;;18.50;78.30;;;18.49;63.96;97909.59;4990600;28;20451;-73
2023/06/26 00:46:11;;;;;;;7.33;6.57;;;18.50;78.20;;;18.30;63.63;97871.81;4989115;28;20539;-75
2023/06/26 00:48:40;;;;;;;7.17;6.50;;;18.50;78.00;;;18.38;63.67;97912.31;4990091;28;20465;-72
2023/06/26 00:51:08;;;;;;;7.30;6.60;;;18.50;78.00;;;18.40;63.45;97907.38;4978174;28;20476;-72
2023/06/26 00:53:35;;;;;;;6.77;6.03;;;18.50;78.00;;;18.00;63.92;97859.69;4990942;28;20492;-73
2023/06/26 00:56:04;;;;;;;6.40;5.80;;;18.40;78.00;;;18.31;63.86;97903.53;4986461;28;20508;-72
2023/06/26 00:58:33;;;;;;;7.73;6.40;;;18.40;78.10;;;18.24;64.60;97902.97;4990244;28;20468;-75
2023/06/26 01:01:00;;;;;;;6.53;5.63;;;18.30;78.40;;;18.19;64.53;97911.97;4966751;28;20479;-73
2023/06/26 01:03:28;;;;;;;6.70;5.90;;;18.30;78.30;;;18.19;64.60;97908.44;4988549;28;20802;-74
2023/06/26 01:05:57;;;;;;;6.50;5.90;;;18.30;78.40;;;18.02;64.81;97892.19;4989546;28;21057;-73
2023/06/26 01:08:25;;;;;;;7.60;5.97;;;18.20;78.40;;;18.01;64.76;97899.59;4983206;28;20463;-74
2023/06/26 01:10:52;;;;;;;6.50;5.83;;;18.20;78.40;;;18.05;64.81;97908.09;4966786;28;20464;-74
2023/06/26 01:13:20;;;;;;;7.13;6.20;;;18.20;78.50;;;18.07;64.56;97903.19;4972604;28;20462;-76
2023/06/26 01:15:50;;;;;;;6.67;5.97;;;18.20;78.40;;;18.00;64.79;97906.16;4993724;28;20488;-74
2023/06/26 01:18:17;;;;;;;6.77;6.07;;;18.10;78.40;;;18.01;64.62;97909.69;4988739;28;20460;-74
2023/06/26 01:20:45;;;;;;;8.80;6.50;;;18.10;78.50;;;18.01;64.66;97904.22;4971953;28;20842;-73
2023/06/26 01:23:17;;;;;;;6.27;5.67;;;18.10;78.60;;;17.89;65.14;97905.25;4987580;28;20517;-75
2023/06/26 01:26:11;;;;;;;6.53;5.93;;;18.00;78.70;;;17.83;65.72;97903.59;4980384;28;20460;-74
2023/06/26 01:28:42;;;;;;;6.80;6.20;;;17.90;79.20;;;17.74;66.20;97913.38;4991987;28;20862;-73
2023/06/26 01:31:11;;;;;;;7.10;6.13;;;17.70;79.70;;;17.64;66.56;97917.72;4988079;28;20447;-74
2023/06/26 01:33:40;;;;;;;6.70;5.83;;;17.60;80.10;;;17.65;66.19;97904.84;4974666;28;20475;-73
2023/06/26 01:36:08;;;;;;;6.67;6.00;;;17.60;80.00;;;17.67;65.74;97905.44;4999303;28;20615;-71
2023/06/26 01:38:35;;;;;;;7.73;6.57;;;17.60;79.70;;;17.60;65.87;97902.09;5004377;28;20472;-72
2023/06/26 01:41:03;;;;;;;7.77;6.80;;;17.60;79.50;;;17.54;66.38;97896.63;4991775;28;20452;-71
2023/06/26 01:43:44;;;;;;;7.47;6.70;;;17.60;80.00;;;17.40;66.61;97907.16;4989378;28;20452;-74
2023/06/26 01:46:21;;;;;;;6.50;5.90;;;17.60;79.80;;;17.30;66.86;97903.56;4970811;28;20460;-75
2023/06/26 01:49:00;;;;;;;8.40;7.50;;;17.60;79.60;;;17.44;66.40;97907.47;4989126;28;20459;-75
2023/06/26 01:51:34;;;;;;;6.60;5.93;;;17.50;79.90;;;17.17;67.15;97897.44;4977520;28;20460;-70
2023/06/26 01:54:02;;;;;;;5.60;5.00;;;17.40;80.10;;;17.23;66.85;97895.59;4986249;28;20457;-73
2023/06/26 01:56:30;;;;;;;7.77;6.47;;;17.40;80.00;;;17.18;66.86;97893.63;4982473;28;20481;-72
2023/06/26 01:59:05;;;;;;;7.27;5.90;;;17.30;80.20;;;17.21;66.93;97887.69;4987909;28;20460;-72
2023/06/26 02:01:35;;;;;;;6.13;5.53;;;17.30;80.50;;;17.20;67.23;97893.38;4982306;28;20459;-73
2023/06/26 02:04:02;;;;;;;8.10;6.27;;;17.30;80.60;;;17.23;67.33;97885.50;4971551;28;20905;-71
2023/06/26 02:06:29;;;;;;;5.93;5.30;;;17.40;80.70;;;17.12;67.44;97886.50;4987851;28;20459;-75
2023/06/26 02:08:57;;;;;;;7.00;6.17;;;17.30;80.40;;;17.13;67.58;97891.69;4991148;28;20483;-70
2023/06/26 02:11:24;;;;;;;6.50;5.90;;;17.30;80.50;;;17.06;67.76;97884.81;4987116;28;21055;-73
2023/06/26 02:13:51;;;;;;;7.57;6.00;;;17.20;80.60;;;16.80;67.61;97849.91;4994294;28;20499;-74
2023/06/26 02:16:20;;;;;;;6.60;5.87;;;17.20;80.90;;;17.04;68.03;97892.44;4986734;28;20579;-74
2023/06/26 02:18:47;;;;;;;6.90;6.20;;;17.10;81.10;;;17.07;68.11;97886.47;4969972;28;20456;-73
2023/06/26 02:21:15;;;;;;;6.60;5.63;;;17.10;81.20;;;17.02;68.37;97880.97;4973295;28;20447;-74
2023/06/26 02:23:42;;;;;;;7.73;6.43;;;17.10;81.40;;;17.07;68.26;97891.94;4994448;28;20956;-72
2023/06/26 02:26:11;;;;;;;7.77;6.13;;;17.10;81.50;;;16.88;68.80;97888.75;4988788;28;20452;-74
2023/06/26 02:28:38;;;;;;;11.60;6.17;;;17.10;81.50;;;16.98;68.64;97897.00;4994076;28;20462;-72
2023/06/26 02:31:05;;;;;;;8.10;6.10;;;17.10;81.70;;;16.92;68.54;97882.50;4971986;28;20461;-71
2023/06/26 02:33:34;;;;;;;7.10;6.40;;;17.20;81.50;;;16.80;68.54;97874.47;4991284;28;21048;-73
2023/06/26 02:36:01;;;;;;;6.47;5.80;;;17.10;81.30;;;16.92;68.83;97898.03;4976372;28;20952;-75
2023/06/26 02:38:28;;;;;;;6.70;6.10;;;17.00;81.70;;;16.81;69.03;97892.50;4998044;28;20547;-74
2023/06/26 02:40:56;;;;;;;6.47;5.83;;;16.90;82.00;;;16.83;69.33;97903.16;4972992;28;20451;-73
2023/06/26 02:43:23;;;;;;;7.33;5.67;;;16.90;82.50;;;16.83;69.73;97894.97;4987496;28;20461;-75
2023/06/26 02:45:50;;;;;;;7.70;6.90;;;17.00;82.30;;;16.84;69.91;97899.34;4986495;28;21003;-74
2023/06/26 02:48:17;;;;;;;6.73;6.13;;;17.00;82.50;;;16.71;70.61;97890.50;4974109;28;20557;-75
2023/06/26 02:50:46;;;;;;;6.53;5.90;;;17.00;83.00;;;16.78;70.35;97895.75;4989519;28;20444;-76
2023/06/26 02:53:13;;;;;;;6.80;6.10;;;17.00;83.00;;;16.66;70.43;97876.81;4996233;28;20913;-74
2023/06/26 02:55:41;;;;;;;7.47;6.03;;;16.90;83.20;;;16.61;70.92;97887.69;4993295;28;20498;-75
2023/06/26 02:58:08;;;;;;;8.00;6.70;;;16.90;83.50;;;16.57;71.06;97894.72;4973344;28;20444;-74
2023/06/26 03:00:41;;;;;;;7.40;6.50;;;16.80;83.50;;;16.56;71.25;97884.91;4972670;28;20452;-75
2023/06/26 03:03:08;;;;;;;7.37;6.60;;;16.80;83.60;;;16.54;71.23;97887.06;4977274;28;20456;-73
2023/06/26 03:05:35;;;;;;;6.80;6.20;;;16.80;83.50;;;16.63;70.82;97892.88;4994435;28;20455;-74
2023/06/26 03:08:05;;;;;;;7.13;6.43;;;16.80;83.60;;;16.61;70.77;97882.25;4992838;28;20952;-71
2023/06/26 03:10:32;;;;;;;7.70;6.37;;;16.80;83.40;;;16.18;70.55;97811.19;4965275;28;20457;-72
2023/06/26 03:12:59;;;;;;;6.80;6.10;;;16.80;83.30;;;16.48;70.40;97847.19;4968552;28;20455;-74
2023/06/26 03:15:27;;;;;;;7.37;6.30;;;16.80;83.40;;;16.67;70.51;97878.47;4990855;28;20491;-73
2023/06/26 03:17:54;;;;;;;9.00;7.17;;;16.80;83.50;;;16.62;70.42;97885.78;4993123;28;20463;-74
2023/06/26 03:20:21;;;;;;;7.47;6.60;;;16.80;83.20;;;16.60;70.68;97888.75;4992117;28;20929;-73
2023/06/26 03:22:48;;;;;;;6.97;6.10;;;16.80;83.30;;;16.62;70.52;97889.34;4995538;28;20470;-72
2023/06/26 03:25:17;;;;;;;6.20;5.60;;;16.80;83.40;;;16.60;70.75;97887.94;4992979;28;20460;-74
2023/06/26 03:27:44;;;;;;;8.13;6.20;;;16.80;83.80;;;16.55;70.26;97888.72;4989832;28;20581;-73
2023/06/26 03:30:13;;;;;;;7.20;5.77;;;16.80;83.10;;;16.65;69.75;97886.09;4990374;28;20456;-73
2023/06/26 03:32:40;;;;;;;6.83;5.70;;;16.80;82.90;;;16.54;70.45;97885.19;4987517;28;20456;-74
2023/06/26 03:35:09;;;;;;;8.77;5.67;;;16.80;83.10;;;16.64;69.87;97881.72;4989339;28;20456;-74
2023/06/26 03:37:36;;;;;;;8.90;6.50;;;16.80;82.80;;;16.68;69.58;97876.53;4991686;28;20455;-74
2023/06/26 03:40:05;;;;;;;8.83;6.30;;;16.80;82.90;;;16.64;69.48;97883.59;4991160;28;20965;-72
2023/06/26 03:42:34;;;;;;;6.83;6.13;;;16.90;82.60;;;16.64;69.38;97879.00;4972885;28;20448;-74
2023/06/26 03:45:01;;;;;;;7.10;5.90;;;16.90;82.50;;;16.28;69.30;97816.75;4990609;28;20463;-74
2023/06/26 03:47:28;;;;;;;7.20;5.90;;;16.90;82.30;;;16.73;68.93;97892.13;4991023;28;21308;-72
2023/06/26 03:49:55;;;;;;;7.03;6.13;;;17.00;82.10;;;16.74;68.65;97882.88;4981651;28;20523;-71
2023/06/26 03:52:23;;;;;;;6.30;5.70;;;17.00;81.80;;;16.83;68.22;97882.16;4988046;28;21226;-74
2023/06/26 03:54:50;;;;;;;6.40;5.80;;;17.10;81.60;;;16.91;68.08;97883.59;4975002;28;20978;-72
2023/06/26 03:57:18;;;;;;;6.83;5.57;;;17.10;81.40;;;16.91;67.21;97883.59;4995326;28;20552;-74
2023/06/26 03:59:46;;;;;;;7.67;6.20;;;17.20;81.10;;;17.02;67.14;97883.69;4974853;28;20957;-73
2023/06/26 04:02:14;;;;;;;7.20;5.80;;;17.20;80.80;;;16.71;67.50;97826.94;4996462;28;20468;-70
2023/06/26 04:04:41;;;;;;;6.30;5.70;;;17.30;81.30;;;17.08;67.45;97888.13;4999274;28;20459;-73
2023/06/26 04:07:08;;;;;;;7.40;6.20;;;17.30;81.10;;;17.53;66.14;97878.59;4994251;28;20460;-74
2023/06/26 04:09:36;;;;;;;8.30;6.87;;;17.60;80.80;;;18.17;63.21;97883.25;4989820;28;20885;-72
2023/06/26 04:12:05;;;;;;;7.47;6.03;;;18.40;78.90;;;18.93;60.62;97879.00;4982929;28;20542;-70
2023/06/26 04:14:32;;;;;;;7.23;5.97;;;19.30;76.90;;;19.22;59.33;97878.47;4987615;28;20476;-73
2023/06/26 04:17:02;;;;;;;7.53;5.67;;;19.80;75.10;;;19.67;57.17;97878.66;4967876;28;20577;-73
2023/06/26 04:19:30;;;;;;;7.53;6.20;;;20.30;73.00;;;20.33;55.74;97875.13;4987551;28;20457;-74
2023/06/26 04:21:58;;;;;;;7.13;6.43;;;20.70;71.80;;;20.91;53.87;97877.22;4987508;28;20970;-73
2023/06/26 04:24:25;;;;;;;7.47;6.57;;;21.30;70.20;;;20.86;53.54;97863.56;4990624;28;20476;-74
2023/06/26 04:26:52;;;;;;;6.23;5.53;;;21.50;68.70;;;21.46;51.70;97878.94;4996977;28;20463;-73
2023/06/26 04:29:19;;;;;;;5.53;5.03;;;22.00;67.20;;;21.71;51.07;97879.78;4996955;28;20512;-74
2023/06/26 04:31:47;;;;;;;6.43;5.83;;;22.20;66.00;;;21.71;50.58;97881.75;4973684;28;20675;-71
2023/06/26 04:34:16;;;;;;;5.80;5.20;;;22.30;64.80;;;21.68;50.07;97890.53;4990541;28;20546;-71
2023/06/26 04:36:47;;;;;;;6.53;5.90;;;22.50;63.80;;;22.12;49.43;97881.22;4985300;28;20473;-73
2023/06/26 04:39:15;;;;;;;6.80;5.90;;;22.60;63.60;;;22.27;49.08;97888.47;4985473;28;20449;-74
2023/06/26 04:41:42;;;;;;;7.47;6.47;;;22.80;62.90;;;22.96;46.88;97869.84;4983577;28;20469;-74
2023/06/26 04:44:10;;;;;;;6.20;5.60;;;23.40;61.50;;;22.35;48.15;97868.53;4985908;28;20548;-74
2023/06/26 04:46:40;;;;;;;5.93;5.33;;;23.30;60.60;;;22.65;47.82;97882.19;4987863;28;20451;-73
2023/06/26 04:49:08;;;;;;;6.10;5.50;;;23.30;60.60;;;22.53;47.95;97871.63;4994002;28;20451;-74
2023/06/26 04:51:40;;;;;;;5.97;4.80;;;23.30;60.50;;;23.15;46.18;97878.09;4972909;28;20459;-74
2023/06/26 04:54:07;;;;;;;7.40;5.90;;;23.70;59.60;;;23.45;45.68;97865.75;4972783;28;20546;-76
2023/06/26 04:56:35;;;;;;;6.17;5.50;;;23.90;59.30;;;23.90;45.07;97875.38;4982433;28;20475;-78
2023/06/26 04:59:02;;;;;;;7.50;5.77;;;24.40;58.80;;;24.04;44.49;97870.69;4984266;28;20487;-76
2023/06/26 05:01:31;;;;;;;6.30;5.70;;;24.60;58.10;;;24.26;43.83;97868.28;4984020;28;20459;-79
2023/06/26 05:03:59;;;;;;;6.20;5.60;;;24.90;57.30;;;24.56;43.14;97872.31;4995301;28;20462;-75
2023/06/26 05:06:26;;;;;;;7.93;5.77;;;25.10;56.90;;;24.58;42.34;97870.06;4985221;28;21454;-75
2023/06/26 05:08:55;;;;;;;7.90;6.20;;;25.20;56.00;;;24.44;43.49;97878.38;4977805;28;20467;-76
2023/06/26 05:11:22;;;;;;;6.20;5.60;;;25.00;56.40;;;24.59;42.76;97874.44;4979495;28;20475;-77
2023/06/26 05:13:50;;;;;;;7.00;5.90;;;25.10;56.40;;;24.55;43.03;97878.97;4969766;28;20452;-75
2023/06/26 05:16:17;;;;;;;6.43;5.73;;;25.00;56.10;;;24.98;42.14;97876.91;4980631;28;20487;-78
2023/06/26 05:18:44;;;;;;;6.90;5.83;;;25.30;55.90;;;24.78;42.46;97875.44;4984877;28;20515;-78
2023/06/26 05:21:13;;;;;;;7.77;6.53;;;25.40;55.20;;;25.12;42.05;97874.88;4982360;28;20531;-78
2023/06/26 05:23:41;;;;;;;6.03;5.43;;;25.50;55.40;;;25.17;41.70;97866.44;4985521;28;21080;-78
2023/06/26 05:26:13;;;;;;;5.40;4.93;;;25.60;55.00;;;25.45;41.62;97866.28;4988358;28;20447;-78
2023/06/26 05:28:41;;;;;;;5.60;4.77;;;25.80;55.00;;;24.82;42.16;97860.69;4990809;28;20458;-80
2023/06/26 05:31:09;;;;;;;6.77;6.03;;;25.50;54.50;;;25.42;41.14;97872.44;4986319;28;20474;-78
2023/06/26 05:33:38;;;;;;;5.90;5.30;;;25.80;54.60;;;26.07;39.83;97869.28;4983847;28;20470;-80
2023/06/26 05:36:09;;;;;;;6.40;5.80;;;26.40;53.90;;;25.24;41.13;97826.47;4988849;28;20480;-78
2023/06/26 05:38:37;;;;;;;5.83;5.23;;;26.40;53.70;;;25.81;40.36;97860.91;4984385;28;20505;-80
2023/06/26 05:41:06;;;;;;;6.33;5.73;;;26.30;53.60;;;26.29;39.29;97862.06;4988942;28;20448;-77
2023/06/26 05:43:34;;;;;;;7.20;6.50;;;26.80;53.10;;;25.61;40.61;97863.13;4963363;28;20514;-81
2023/06/26 05:46:01;;;;;;;6.80;6.10;;;26.60;52.80;;;26.87;38.30;97865.50;4961321;28;21063;-85
2023/06/26 05:48:29;;;;;;;6.20;5.13;;;27.00;52.80;;;26.53;38.20;97867.13;4958356;28;20477;-82
2023/06/26 05:50:57;;;;;;;5.73;5.13;;;27.40;52.00;;;25.92;39.65;97803.31;4983628;28;20935;-79
2023/06/26 05:53:26;;;;;;;6.33;5.23;;;26.60;52.60;;;26.34;39.11;97853.59;4973135;28;20459;-86
2023/06/26 05:55:54;;;;;;;6.57;5.60;;;26.90;52.10;;;26.48;38.76;97861.75;4983557;28;20497;-81
2023/06/26 05:58:22;;;;;;;5.40;4.90;;;27.10;52.10;;;27.03;37.59;97848.38;4985487;28;20819;-87
2023/06/26 06:00:52;;;;;;;6.40;5.80;;;27.40;51.40;;;27.29;37.55;97850.28;4987306;28;20830;-77
2023/06/26 06:03:19;;;;;;;6.43;5.83;;;27.70;51.30;;;27.69;35.91;97840.88;4973569;28;21066;-89
2023/06/26 06:05:46;;;;;;;5.60;5.10;;;28.20;50.50;;;26.76;37.28;97850.31;4977494;28;20448;-90
2023/06/26 06:08:14;;;;;;;7.80;5.50;;;27.90;50.20;;;27.75;35.72;97802.66;4989062;28;21222;-91
2023/06/26 06:10:41;;;;;;;5.50;5.00;;;28.30;50.20;;;28.24;35.38;97846.63;4973679;28;20470;-89
2023/06/26 06:13:09;;;;;;;6.30;4.73;;;28.70;49.50;;;27.86;35.12;97795.56;4989172;28;20940;-88
2023/06/26 06:15:36;;;;;;;6.27;5.47;;;28.70;49.30;;;29.16;33.48;97843.25;4989612;28;21015;-90
2023/06/26 06:18:05;;;;;;;5.97;5.37;;;29.30;49.20;;;28.55;34.32;97842.66;4988185;28;20479;-87
2023/06/26 06:20:33;;;;;;;6.40;5.73;;;29.50;48.60;;;28.66;34.56;97835.53;4993737;28;20463;-85
2023/06/26 06:23:00;;;;;;;6.90;5.00;;;29.40;48.50;;;29.16;33.31;97840.47;4993702;28;20444;-86
2023/06/26 06:25:29;;;;;;;5.57;5.07;;;29.40;48.40;;;29.08;32.81;97831.88;4975911;28;20499;-88
2023/06/26 06:27:56;;;;;;;6.63;6.03;;;29.80;47.70;;;29.83;31.88;97843.16;4976605;28;20436;-89
2023/06/26 06:30:24;;;;;;;7.30;5.20;;;29.90;47.40;;;28.39;32.87;97789.66;4990317;28;20460;-86
2023/06/26 06:32:52;;;;;;;5.33;4.83;;;29.80;46.60;;;27.12;35.60;97835.31;4992000;28;20499;-86
2023/06/26 06:35:21;;;;;;;6.20;4.97;;;28.50;47.60;;;26.87;36.15;97851.66;4991323;28;20532;-85
2023/06/26 06:37:50;;;;;;;5.63;4.73;;;27.60;48.20;;;25.21;38.42;97850.06;4998061;28;20468;-87
2023/06/26 06:40:17;;;;;;;6.60;5.70;;;25.80;48.70;;;25.08;38.67;97835.16;4996697;28;20511;-84
2023/06/26 06:42:45;;;;;;;7.90;5.07;;;25.20;49.40;;;24.46;39.57;97845.75;5000361;28;20452;-82
2023/06/26 06:45:12;;;;;;;6.33;5.17;;;24.80;49.70;;;24.44;39.20;97847.19;4992751;28;20467;-88
2023/06/26 06:47:40;;;;;;;5.50;4.87;;;24.50;49.80;;;24.41;39.41;97834.00;4979959;28;20505;-86
2023/06/26 06:50:11;;;;;;;7.60;5.27;;;24.30;49.80;;;24.37;39.47;97847.63;4995778;28;20455;-86
2023/06/26 06:52:41;;;;;;;5.77;5.27;;;24.40;50.00;;;24.61;39.04;97839.03;4994095;28;20463;-88
2023/06/26 06:55:09;;;;;;;5.60;4.90;;;24.40;49.90;;;25.02;37.88;97841.97;4985821;28;20930;-86
2023/06/26 06:57:38;;;;;;;6.13;5.53;;;24.70;49.90;;;24.96;37.61;97826.66;4990648;28;20464;-87
2023/06/26 07:00:09;;;;;;;5.03;4.53;;;24.70;49.40;;;25.27;37.34;97831.41;4975270;28;20455;-86
2023/06/26 07:02:37;;;;;;;5.60;4.83;;;25.00;49.40;;;25.25;37.76;97830.88;4982134;28;20463;-89
2023/06/26 07:05:04;;;;;;;6.27;5.17;;;25.20;49.60;;;25.03;38.39;97830.63;4978894;28;20483;-82
2023/06/26 07:07:34;;;;;;;6.43;5.20;;;24.90;49.60;;;25.16;38.61;97831.66;4995670;28;20448;-85
2023/06/26 07:10:06;;;;;;;6.80;5.70;;;25.00;50.10;;;25.57;37.58;97840.81;5003600;28;20455;-85
2023/06/26 07:12:33;;;;;;;5.70;4.90;;;25.20;49.70;;;25.60;36.92;97828.31;4999775;28;20448;-88
2023/06/26 07:15:02;;;;;;;5.93;5.10;;;25.30;49.20;;;25.87;36.68;97834.75;4994063;28;20448;-84
2023/06/26 07:17:29;;;;;;;5.37;4.83;;;25.50;49.30;;;25.80;36.62;97837.16;5017765;28;20478;-86
2023/06/26 07:19:58;;;;;;;6.33;5.73;;;25.50;48.90;;;25.87;36.93;97829.22;5012401;28;20527;-87
2023/06/26 07:22:25;;;;;;;5.83;5.10;;;25.60;49.10;;;25.92;36.81;97826.28;4980641;28;20866;-87
2023/06/26 07:24:53;;;;;;;5.40;4.90;;;25.70;49.10;;;25.82;36.60;97823.81;5002670;28;20447;-84
2023/06/26 07:27:21;;;;;;;5.80;5.30;;;25.70;49.00;;;26.02;36.27;97823.22;5011353;28;20464;-82
2023/06/26 07:29:49;;;;;;;5.63;5.13;;;25.70;48.90;;;26.34;35.96;97816.78;5011501;28;20454;-82
2023/06/26 07:32:16;;;;;;;7.00;5.60;;;25.90;49.00;;;26.35;36.50;97819.22;5001686;28;20856;-85
2023/06/26 07:34:44;;;;;;;5.60;5.03;;;26.10;49.20;;;26.43;36.14;97814.81;5003037;28;20452;-86
2023/06/26 07:37:14;;;;;;;6.03;5.43;;;26.20;48.90;;;26.59;36.00;97821.50;5008722;28;20491;-83
2023/06/26 07:39:41;;;;;;;5.47;4.97;;;26.30;48.80;;;26.72;36.01;97805.03;5009133;28;20440;-85
2023/06/26 07:42:09;;;;;;;5.83;5.30;;;26.40;48.90;;;26.87;35.73;97817.59;4982986;28;20926;-86
2023/06/26 07:44:39;;;;;;;5.80;5.27;;;26.60;48.80;;;26.30;36.29;97816.63;4997423;28;20483;-82
2023/06/26 07:47:06;;;;;;;6.17;5.50;;;26.40;48.70;;;26.38;35.88;97801.94;5002138;28;20444;-87
2023/06/26 07:49:34;;;;;;;7.03;5.87;;;26.20;48.80;;;26.83;35.61;97820.19;4995573;28;20791;-82
2023/06/26 07:52:01;;;;;;;6.57;5.70;;;26.50;48.80;;;27.08;35.20;97820.50;4992758;28;20951;-85
2023/06/26 07:54:29;;;;;;;8.57;5.93;;;26.80;48.60;;;27.28;34.74;97793.19;4977702;28;20441;-87
2023/06/26 07:56:58;;;;;;;5.83;5.00;;;27.00;48.50;;;27.36;34.89;97805.41;4976144;28;20476;-86
2023/06/26 07:59:28;;;;;;;6.73;5.30;;;27.20;48.40;;;27.29;34.99;97811.47;4997884;28;20444;-87
2023/06/26 08:01:58;;;;;;;6.40;5.17;;;27.00;48.10;;;27.31;33.97;97767.56;4998814;28;20459;-84
2023/06/26 08:04:28;;;;;;;6.30;5.70;;;27.30;48.10;;;27.95;34.11;97809.38;4986430;28;20921;-88
2023/06/26 08:06:58;;;;;;;7.00;6.00;;;27.50;48.20;;;27.58;33.88;97796.03;4975472;28;21003;-85
2023/06/26 08:09:28;;;;;;;6.73;6.03;;;27.50;47.80;;;27.61;34.30;97789.81;4993516;28;20452;-86
2023/06/26 08:11:56;;;;;;;6.80;5.97;;;27.40;48.10;;;27.97;33.80;97796.78;4992548;28;20506;-87
2023/06/26 08:14:24;;;;;;;6.83;5.50;;;27.60;48.00;;;28.11;33.79;97795.72;4991429;28;20468;-85
2023/06/26 08:16:52;;;;;;;6.80;5.80;;;27.70;48.00;;;28.02;34.02;97792.19;4977244;28;20473;-86
2023/06/26 08:19:21;;;;;;;6.37;5.77;;;27.70;48.20;;;27.96;33.92;97788.81;4994199;28;20445;-86
2023/06/26 08:21:49;;;;;;;6.40;5.80;;;27.80;47.90;;;28.27;33.84;97794.00;5002519;28;20530;-89
2023/06/26 08:24:18;;;;;;;7.40;6.70;;;27.90;48.10;;;28.23;33.75;97754.16;4976411;28;20544;-88
2023/06/26 08:26:46;;;;;;;6.37;5.77;;;28.10;48.10;;;28.75;33.15;97793.75;4994043;28;20452;-89
2023/06/26 08:29:14;;;;;;;6.23;5.63;;;28.30;47.90;;;28.92;32.80;97789.22;4993615;28;20510;-86
2023/06/26 08:31:43;;;;;;;5.90;5.30;;;28.40;47.50;;;28.88;32.95;97789.09;4993354;28;20487;-88
2023/06/26 08:34:10;;;;;;;6.07;5.47;;;28.50;47.40;;;28.64;32.98;97782.25;4995477;28;20511;-84
2023/06/26 08:36:39;;;;;;;6.97;6.30;;;28.50;47.60;;;28.78;33.05;97778.34;4999377;28;20456;-83
2023/06/26 08:39:08;;;;;;;6.80;6.13;;;28.40;47.70;;;28.82;33.29;97776.56;4985950;28;20455;-86
2023/06/26 08:41:36;;;;;;;6.07;5.57;;;28.50;47.60;;;29.07;32.75;97780.22;4993198;28;20490;-89
2023/06/26 08:44:04;;;;;;;7.00;6.20;;;28.60;47.60;;;29.38;32.62;97778.03;4973920;28;20457;-85
2023/06/26 08:46:32;;;;;;;7.80;6.50;;;28.80;47.50;;;29.31;32.71;97775.84;5001385;28;20468;-82
2023/06/26 08:49:07;;;;;;;5.80;5.30;;;28.90;47.40;;;29.37;31.81;97779.19;4983557;28;21072;-85
2023/06/26 08:51:38;;;;;;;6.67;6.07;;;28.90;46.90;;;29.27;32.14;97777.69;4992223;28;21015;-89
2023/06/26 08:54:12;;;;;;;6.63;6.03;;;29.10;46.90;;;28.71;32.98;97776.13;4995711;28;20460;-85
2023/06/26 08:56:44;;;;;;;6.00;5.43;;;28.50;47.00;;;28.95;32.91;97767.06;4998066;28;20451;-84
2023/06/26 08:59:12;;;;;;;6.57;5.43;;;28.70;47.20;;;29.00;32.24;97779.16;4980615;28;20459;-86
2023/06/26 09:01:41;;;;;;;6.23;5.60;;;28.70;46.90;;;29.45;32.53;97778.31;4990313;28;20467;-87
2023/06/26 09:04:08;;;;;;;7.13;5.93;;;28.80;47.20;;;29.88;31.70;97781.66;5009540;28;20440;-85
2023/06/26 09:06:36;;;;;;;7.00;5.70;;;29.20;47.20;;;29.44;31.78;97771.13;5001879;28;20535;-86
2023/06/26 09:09:07;;;;;;;8.47;6.10;;;29.40;46.50;;;29.81;31.44;97778.66;4982242;28;20764;-86
2023/06/26 09:11:34;;;;;;;6.60;5.80;;;29.40;46.60;;;29.87;31.17;97771.69;5000673;28;20480;-86
2023/06/26 09:14:04;;;;;;;7.10;6.40;;;29.60;46.30;;;29.68;30.79;97775.06;5000644;28;20459;-84
2023/06/26 09:16:31;;;;;;;6.23;5.63;;;29.50;45.90;;;29.59;30.89;97760.47;4993416;28;20923;-87
2023/06/26 09:18:59;;;;;;;6.20;5.60;;;29.40;45.90;;;29.75;30.79;97775.31;5009104;28;20491;-86
2023/06/26 09:21:27;;;;;;;6.30;5.70;;;29.40;46.00;;;29.82;29.49;97764.38;4981627;28;20948;-87
2023/06/26 09:23:55;;;;;;;5.47;4.97;;;29.60;45.00;;;30.06;29.57;97761.94;4998776;28;20455;-89
2023/06/26 09:26:24;;;;;;;5.83;5.33;;;29.60;45.00;;;30.16;29.15;97768.97;4979409;28;20469;-87
2023/06/26 09:28:53;;;;;;;6.60;6.00;;;29.70;45.00;;;30.18;29.26;97778.63;4975999;28;20457;-89
2023/06/26 09:31:21;;;;;;;5.90;5.40;;;29.80;44.90;;;30.20;28.93;97767.13;4996329;28;20476;-88
2023/06/26 09:33:50;;;;;;;7.07;5.90;;;29.80;44.70;;;30.12;28.84;97766.13;4998759;28;20830;-86
2023/06/26 09:36:22;;;;;;;5.97;5.00;;;29.80;44.10;;;30.34;28.75;97766.72;4990474;28;20449;-86
2023/06/26 09:38:49;;;;;;;5.93;5.03;;;29.90;44.30;;;30.46;28.31;97771.44;4999934;28;20496;-85
2023/06/26 09:41:18;;;;;;;5.20;4.70;;;29.90;44.30;;;30.19;29.13;97760.75;5000776;28;20471;-86
2023/06/26 09:43:52;;;;;;;5.90;5.33;;;30.00;44.30;;;30.38;29.07;97759.28;4993814;28;20457;-85
2023/06/26 09:46:26;;;;;;;5.30;4.80;;;30.00;44.30;;;30.47;28.41;97754.38;4996919;28;20452;-86
2023/06/26 09:49:01;;;;;;;6.80;6.10;;;30.10;44.10;;;30.46;28.21;97763.91;4983363;28;20452;-88
2023/06/26 09:51:31;;;;;;;5.80;5.30;;;30.00;44.10;;;30.56;28.80;97768.16;5000037;28;20456;-88
2023/06/26 09:53:59;;;;;;;5.67;5.17;;;30.10;44.40;;;30.86;28.27;97755.84;5000359;28;20445;-88
2023/06/26 09:56:28;;;;;;;5.07;4.57;;;30.30;44.00;;;30.90;26.80;97749.19;4994083;28;20479;-86
2023/06/26 09:59:00;;;;;;;5.70;5.20;;;30.40;43.40;;;30.79;27.20;97757.28;5008374;28;20485;-82
2023/06/26 10:01:28;;;;;;;4.70;4.30;;;30.40;43.00;;;30.63;26.72;97756.44;5002028;28;20468;-81
2023/06/26 10:03:57;;;;;;;4.50;4.10;;;30.30;42.50;;;30.73;27.11;97758.72;5004849;28;20450;-88
2023/06/26 10:06:29;;;;;;;5.10;4.60;;;30.30;42.80;;;30.58;27.50;97751.09;4999809;28;20444;-86
2023/06/26 10:08:59;;;;;;;5.27;4.67;;;30.30;42.90;;;30.36;27.13;97753.25;4996467;28;20461;-86
2023/06/26 10:11:36;;;;;;;5.03;4.63;;;30.10;42.80;;;30.48;27.09;97750.44;4997187;28;20467;-81
2023/06/26 10:14:08;;;;;;;5.30;4.80;;;30.10;42.70;;;30.78;27.08;97747.28;5017897;28;20479;-80
2023/06/26 10:16:37;;;;;;;5.30;4.80;;;30.30;42.90;;;30.74;26.82;97745.56;4991723;28;20926;-82
2023/06/26 10:19:09;;;;;;;5.57;5.00;;;30.30;42.60;;;30.86;27.16;97733.53;5015944;28;20503;-81
2023/06/26 10:21:39;;;;;;;5.17;4.70;;;30.40;42.80;;;30.71;26.97;97749.91;5001329;28;20654;-82
2023/06/26 10:24:08;;;;;;;5.97;5.47;;;30.40;42.40;;;31.03;27.56;97736.00;4996641;28;20480;-90
2023/06/26 10:26:39;;;;;;;5.77;5.10;;;30.60;43.00;;;30.88;27.81;97734.81;4993644;28;20461;-88